aviador You're here:

SCAT Decoded Metar

DESIERTO ATACAMA in CHILE
Report Time2017-11-25 00:00:00
UTC Time2017-11-25 00:15:50
Flight Rules mvfr MVFR
Wind220° at 11 kt
W.Decomp.*RWY 17: 6.9 kt HW 8.5 kt RCW
W.Rank220° ranks 4
Current wind is above 220° avg. (8.1)
Visibility9999 m
Phenomena:N/A
Clouds:Overcast 020 Hf
Expected CloudBase > 2,000 ft AGL from Temp-Dew spread
Ceiling2,000 ft
Temp16°C (ISA +2)
Dew Point11°C (72% RH)
AAT12.3°C
QNH1018 hPa
Density Alt955 ft
Elevation669 ft
Report Wrong Elevation
Raw Report
METAR SCAT 250000Z 22011KT 9999 OVC020 16/11 Q1018=

Extra information for SCAT:More info

Metar Taf Metar & Taf Last 4 Metars F.Rules Stats Wind Profile Meteogram Temp Stats Airport Information Weather charts Add Link Nearby VenuesMetar ALERT Operation Metar Decoded Social comments